South Boston, VA (24592)

5:12 AM EDT on August 23, 2014 (GMT -0400)
Union Community Near South Boston, Va | Change Station
CLOSE
Current Station
Personal Weather Station
Location: South Boston, VA
Elevation: 440 ft
Nearby Weather Stations

Elev 440 ft 36.70 °N, 79.00 °W | Updated 13 minutes ago

Partly Cloudy
Partly Cloudy
73.8 °F
Feels Like 70 °F
N
0.0
Wind Variable Wind from WNW
Gusts 1.0 mph

Today
High -- | Low -- °F
--% Chance of Precip.
Yesterday
High -- | Low -- °F
Precip. -- in
6:39 AM 7:56 PM
Waning Crescent, 4% visible
Pressure 29.91 in
Visibility 8.0 miles
Clouds Few 12000 ft
Heat Index 70 °F
Dew Point 73 °F
Humidity 96%
Rainfall 0.00 in
Snow Depth Not available.
UV 0 out of 12
Pollen 8.50 out of 12
Air Quality Not available.
Flu Activity Not available.
METAR KDAN 230753Z AUTO 00000KT 8SM FEW120 24/22 A2995 RMK AO2 SLP129 T02390222

More Conditions Fewer Conditions

Pressure 29.91 in
Visibility 8.0 miles
Clouds Few 12000 ft
Heat Index 70 °F
Dew Point 73 °F
Humidity 96%
Rainfall 0.00 in
Snow Depth Not available.
UV 0 out of 12
Pollen 8.50 out of 12
Air Quality Not available.
Flu Activity Not available.
METAR KDAN 230753Z AUTO 00000KT 8SM FEW120 24/22 A2995 RMK AO2 SLP129 T02390222

More Conditions Fewer Conditions

10-Day Weather Forecast

Almanac

Astronomy

Aug. 23, 2014 Rise Set
Actual Time 6:39 AM EDT 7:56 PM EDT
Civil Twilight 6:12 AM EDT 8:23 PM EDT
Nautical Twilight 5:40 AM EDT 8:55 PM EDT
Astronomical Twilight 5:06 AM EDT 9:28 PM EDT
Moon 4:55 AM EDT 6:39 PM EDT
Length of Visible Light 14h 10m
Length of Day
13h 16m
Tomorrow will be 2m 8s shorter.
Waning Crescent, 4% of the Moon is Illuminated
Today
Waning Crescent
Aug 25
New
Sep 2
First Quarter
Sep 8
Full
Sep 15
Last Quarter

Today's Extremes

State Highs State Lows

Community

WunderPhotos

Upload Photos

1,746,396 photos uploaded!

WunderBlogs® & News

By Dr. Jeff Masters
Director of Meteorology, Weather Underground
By Kari Strenfel
Meteorologist, Weather Underground
By Christopher C. Burt
Weather Historian, Weather Underground
August 23, 2014
August 23, 2014
August 22, 2014

Nearby

Snow Depth

Station Depth Elevation
No new snow has been reported.

Earthquake Activity

City Distance Mag. Time & Date
No recent earthquake activity has been reported nearby.
Minimum magnitude displayed is 2.5.

Coastal Water Temperatures

Place Temperature
No Stations Reporting

Nearby Weather Stations